YTZ weather

Billy Bishop Toronto City Centre Airport
Toronto, Ontario, Canada

Public forecast

Using degrees Celsius for public forecast. Weather courtesy of forecast.io.

Current aviation weather report (METAR) for Billy Bishop Toronto City Centre Airport

Retrieved 2019/11/19 16:00 UTC (56 minutes ago):

CYTZ 191600Z AUTO 09003KT 9SM OVC019 03/00 A2984 RMK SLP108

Aviation forecast (TAF) for Billy Bishop Toronto City Centre Airport

Retrieved 2019/11/19 14:45 UTC (2 hours ago):

TAF CYTZ 191341Z 1914/2014 06005KT P6SM SCT008 OVC020 TEMPO 1914/1923 6SM -DZ BR BKN008 OVC020 FM192300 VRB03KT P6SM SCT008 BKN025 TEMPO 1923/2008 BKN008 OVC020 PROB30 2006/2008 2SM BR BKN004 OVC020 FM200800 32005KT 6SM -DZ BR FEW003 BKN006 OVC020 PROB30 2008/2014 1SM -DZ BR OVC003 RMK FCST BASED ON AUTO OBS NXT FCST BY 192000Z